Time;durP1;ratioP1;P1;durP2;ratioP2;P2;SDS_P1;SDS_P2;PMS_P1;PMS_P2;Temp;Humidity;BMP_temperature;BMP_pressure;BME280_temperature;BME280_humidity;BME280_pressure;Samples;Min_cycle;Max_cycle;Signal;HPM_P1;HPM_P2
2022/07/11 00:02:09;;;;;;;4.77;2.00;;;13.50;99.90;;;;;;5051518;28;20240;-62
2022/07/11 00:04:35;;;;;;;6.67;2.13;;;13.50;99.90;;;;;;5051434;28;20178;-61
2022/07/11 00:07:02;;;;;;;5.13;1.70;;;13.50;99.90;;;;;;5051802;28;20622;-61
2022/07/11 00:09:29;;;;;;;4.70;1.87;;;13.50;99.90;;;;;;5051084;28;20194;-62
2022/07/11 00:11:55;;;;;;;4.13;1.43;;;13.50;99.90;;;;;;5051580;28;20708;-61
2022/07/11 00:14:21;;;;;;;3.43;1.13;;;13.50;99.90;;;;;;5049819;28;20190;-62
2022/07/11 00:16:48;;;;;;;4.47;2.20;;;13.50;99.90;;;;;;5051222;28;20236;-61
2022/07/11 00:19:14;;;;;;;6.17;2.30;;;13.50;99.90;;;;;;5051335;28;20178;-63
2022/07/11 00:21:40;;;;;;;4.43;1.50;;;13.50;99.90;;;;;;5051404;28;20215;-62
2022/07/11 00:24:07;;;;;;;4.83;2.10;;;13.50;99.90;;;;;;5051357;28;20543;-62
2022/07/11 00:26:34;;;;;;;4.20;1.90;;;13.50;99.90;;;;;;5049912;28;20194;-62
2022/07/11 00:28:59;;;;;;;4.50;2.10;;;13.50;99.90;;;;;;5051295;28;20174;-62
2022/07/11 00:31:25;;;;;;;2.53;1.83;;;13.40;99.90;;;;;;5050933;28;20193;-62
2022/07/11 00:33:51;;;;;;;3.07;2.03;;;13.40;99.90;;;;;;5051491;28;20626;-61
2022/07/11 00:36:16;;;;;;;3.17;1.80;;;13.40;99.90;;;;;;5051029;28;20179;-62
2022/07/11 00:38:42;;;;;;;5.27;2.13;;;13.50;99.90;;;;;;5051299;28;20261;-64
2022/07/11 00:41:08;;;;;;;2.27;1.70;;;13.50;99.90;;;;;;5051228;28;20241;-63
2022/07/11 00:43:36;;;;;;;4.83;1.70;;;13.50;99.90;;;;;;5050860;28;20685;-62
2022/07/11 00:46:03;;;;;;;4.43;2.20;;;13.50;99.90;;;;;;5051124;28;20206;-61
2022/07/11 00:48:28;;;;;;;4.30;1.93;;;13.50;99.90;;;;;;5050729;28;20244;-62
2022/07/11 00:50:54;;;;;;;4.17;1.60;;;13.50;99.90;;;;;;5051196;28;20183;-62
2022/07/11 00:53:22;;;;;;;2.93;1.90;;;13.50;99.90;;;;;;5050963;28;20194;-62
2022/07/11 00:55:49;;;;;;;3.80;1.80;;;13.50;99.90;;;;;;5051024;28;20623;-61
2022/07/11 00:58:15;;;;;;;3.23;1.53;;;13.50;99.90;;;;;;5050883;28;20186;-67
2022/07/11 01:00:41;;;;;;;4.37;1.70;;;13.50;99.90;;;;;;5050871;28;20224;-61
2022/07/11 01:03:07;;;;;;;3.07;1.57;;;13.50;99.90;;;;;;5051117;28;20201;-61
2022/07/11 01:05:33;;;;;;;4.07;1.50;;;13.50;99.90;;;;;;5054045;28;20670;-61
2022/07/11 01:07:59;;;;;;;2.63;1.50;;;13.50;99.90;;;;;;5054682;28;20220;-62
2022/07/11 01:10:25;;;;;;;3.40;1.80;;;13.50;99.90;;;;;;5054236;28;20218;-62
2022/07/11 01:12:51;;;;;;;3.77;1.67;;;13.50;99.90;;;;;;5054419;28;20271;-62
2022/07/11 01:15:17;;;;;;;3.57;1.80;;;13.50;99.90;;;;;;5054041;28;20199;-65
2022/07/11 01:17:43;;;;;;;2.13;1.30;;;13.50;99.90;;;;;;5054403;28;20620;-61
2022/07/11 01:20:09;;;;;;;3.03;1.70;;;13.50;99.90;;;;;;5054286;28;20205;-62
2022/07/11 01:22:44;;;;;;;3.33;1.67;;;13.50;99.90;;;;;;5054253;28;20186;-60
2022/07/11 01:25:29;;;;;;;3.37;1.57;;;13.50;99.90;;;;;;5054213;28;20248;-63
2022/07/11 01:27:59;;;;;;;3.13;1.37;;;13.50;99.90;;;;;;5054439;28;20947;-61
2022/07/11 01:30:29;;;;;;;2.77;1.67;;;13.50;99.90;;;;;;5054052;28;20182;-62
2022/07/11 01:32:55;;;;;;;1.60;0.90;;;13.50;99.90;;;;;;5054403;28;20183;-62
2022/07/11 01:35:22;;;;;;;5.23;1.30;;;13.50;99.90;;;;;;5053451;28;20556;-62
2022/07/11 01:37:48;;;;;;;3.90;1.30;;;13.50;99.90;;;;;;5054030;28;20542;-63
2022/07/11 01:40:14;;;;;;;1.77;1.00;;;13.50;99.90;;;;;;5053527;28;20238;-61
2022/07/11 01:42:41;;;;;;;1.83;1.00;;;13.50;99.90;;;;;;5053849;28;20635;-62
2022/07/11 01:45:07;;;;;;;3.20;1.90;;;13.50;99.90;;;;;;5053926;28;20187;-62
2022/07/11 01:47:33;;;;;;;2.27;1.10;;;13.50;99.90;;;;;;5053517;28;20185;-61
2022/07/11 01:49:59;;;;;;;3.03;1.63;;;13.40;99.90;;;;;;5053645;28;20269;-62
2022/07/11 01:52:25;;;;;;;3.67;2.20;;;13.40;99.90;;;;;;5053511;28;20183;-61
2022/07/11 01:54:51;;;;;;;6.20;3.03;;;13.40;99.90;;;;;;5053668;28;20291;-64
2022/07/11 01:57:17;;;;;;;2.60;1.50;;;13.40;99.90;;;;;;5053858;28;20748;-67
2022/07/11 01:59:42;;;;;;;3.43;2.20;;;13.40;99.90;;;;;;5052221;28;20178;-61
2022/07/11 02:02:08;;;;;;;3.70;2.27;;;13.40;99.90;;;;;;5052317;28;20237;-63
2022/07/11 02:04:34;;;;;;;6.83;2.23;;;13.40;99.90;;;;;;5053083;28;20183;-62
2022/07/11 02:07:00;;;;;;;4.70;2.27;;;13.40;99.90;;;;;;5053435;28;20181;-64
2022/07/11 02:09:26;;;;;;;2.87;1.60;;;13.40;99.90;;;;;;5052903;28;20669;-60
2022/07/11 02:11:51;;;;;;;5.50;2.20;;;13.40;99.90;;;;;;5053416;28;20185;-61
2022/07/11 02:14:17;;;;;;;6.23;2.60;;;13.40;99.90;;;;;;5053302;28;20524;-64
2022/07/11 02:16:43;;;;;;;9.43;2.07;;;13.40;99.90;;;;;;5052912;28;20210;-62
2022/07/11 02:19:10;;;;;;;2.60;1.40;;;13.30;99.90;;;;;;5052868;28;20573;-62
2022/07/11 02:21:36;;;;;;;0.50;0.30;;;13.30;99.90;;;;;;5052542;28;20223;-60
2022/07/11 02:24:02;;;;;;;0.83;0.60;;;13.30;99.90;;;;;;5052982;28;20182;-62
2022/07/11 02:26:28;;;;;;;2.93;0.90;;;13.30;99.90;;;;;;5052898;28;20560;-62
2022/07/11 02:28:54;;;;;;;2.67;0.67;;;13.30;99.90;;;;;;5053175;28;20253;-62
2022/07/11 02:31:20;;;;;;;6.90;1.40;;;13.30;99.90;;;;;;5051453;28;20243;-70
2022/07/11 02:33:45;;;;;;;3.30;1.70;;;13.40;99.90;;;;;;5052940;28;20220;-61
2022/07/11 02:36:11;;;;;;;4.13;1.67;;;13.30;99.90;;;;;;5049002;28;20251;-61
2022/07/11 02:38:37;;;;;;;3.73;1.70;;;13.30;99.90;;;;;;5043934;28;20297;-61
2022/07/11 02:41:03;;;;;;;2.43;1.30;;;13.30;99.90;;;;;;5033996;28;20602;-63
2022/07/11 02:43:29;;;;;;;1.70;1.17;;;13.30;99.90;;;;;;5051870;28;20190;-63
2022/07/11 02:45:55;;;;;;;2.57;1.03;;;13.30;99.90;;;;;;5052422;28;20283;-64
2022/07/11 02:48:21;;;;;;;1.23;0.70;;;13.30;99.90;;;;;;5032348;28;20207;-67
2022/07/11 02:50:47;;;;;;;0.33;0.30;;;13.20;99.90;;;;;;5014726;28;20723;-63
2022/07/11 02:53:13;;;;;;;0.90;0.63;;;13.10;99.90;;;;;;5032558;28;20183;-62
2022/07/11 02:55:39;;;;;;;2.50;1.57;;;13.10;99.90;;;;;;5032521;28;20228;-63
2022/07/11 02:58:05;;;;;;;2.70;1.10;;;13.10;99.90;;;;;;5032618;28;20183;-63
2022/07/11 03:00:31;;;;;;;2.37;1.30;;;13.10;99.90;;;;;;5032062;28;20666;-61
2022/07/11 03:02:57;;;;;;;2.17;1.30;;;13.10;99.90;;;;;;5032493;28;20187;-61
2022/07/11 03:05:23;;;;;;;3.83;1.50;;;13.20;99.90;;;;;;5031719;28;20179;-61
2022/07/11 03:07:49;;;;;;;4.97;1.43;;;13.20;99.90;;;;;;5032408;28;20187;-64
2022/07/11 03:10:15;;;;;;;7.90;1.67;;;13.20;99.90;;;;;;5032279;28;20190;-61
2022/07/11 03:12:41;;;;;;;5.83;1.90;;;13.20;99.90;;;;;;5032027;28;20175;-60
2022/07/11 03:15:08;;;;;;;4.70;1.80;;;13.20;99.90;;;;;;5032506;28;20189;-63
2022/07/11 03:17:38;;;;;;;3.77;1.50;;;13.20;99.90;;;;;;5031698;28;20270;-61
2022/07/11 03:20:05;;;;;;;3.30;1.40;;;13.20;99.90;;;;;;5034515;28;20186;-62
2022/07/11 03:22:31;;;;;;;3.60;1.33;;;13.30;99.90;;;;;;5051538;28;20174;-64
2022/07/11 03:24:57;;;;;;;4.37;1.60;;;13.30;99.90;;;;;;5052229;28;20198;-60
2022/07/11 03:27:24;;;;;;;4.67;1.47;;;13.30;99.90;;;;;;5051083;28;20526;-69
2022/07/11 03:29:50;;;;;;;3.20;1.37;;;13.30;99.90;;;;;;5051944;28;20260;-63
2022/07/11 03:32:16;;;;;;;5.57;1.60;;;13.30;99.90;;;;;;5051666;28;20190;-62
2022/07/11 03:35:40;;;;;;;2.20;1.57;;;13.30;99.90;;;;;;5051134;28;20232;-62
2022/07/11 03:37:27;;;;;;;3.67;1.50;;;13.30;99.90;;;;;;5050707;28;20190;-63
2022/07/11 03:39:53;;;;;;;5.57;1.47;;;13.30;99.90;;;;;;5051142;28;20237;-62
2022/07/11 03:42:19;;;;;;;3.07;1.40;;;13.40;99.90;;;;;;5051623;28;20192;-60
2022/07/11 03:44:44;;;;;;;3.77;1.20;;;13.50;99.90;;;;;;5051208;28;20681;-62
2022/07/11 03:47:10;;;;;;;2.50;1.20;;;13.50;99.90;;;;;;5047034;28;20220;-63
2022/07/11 03:49:36;;;;;;;2.47;1.57;;;13.50;99.90;;;;;;5044061;28;20232;-63
2022/07/11 03:52:02;;;;;;;3.80;1.50;;;13.60;99.90;;;;;;5035502;28;20278;-60
2022/07/11 03:54:27;;;;;;;2.73;1.27;;;13.60;99.90;;;;;;5051195;28;20269;-61
2022/07/11 03:56:53;;;;;;;5.27;1.87;;;13.60;99.90;;;;;;5041631;28;20669;-62
2022/07/11 03:59:19;;;;;;;6.43;1.37;;;13.60;99.90;;;;;;5031501;28;20178;-62
2022/07/11 04:01:45;;;;;;;5.20;1.63;;;13.60;99.90;;;;;;5030831;28;20242;-62
2022/07/11 04:04:10;;;;;;;3.03;1.40;;;13.60;99.90;;;;;;5031548;28;20192;-61
2022/07/11 04:06:36;;;;;;;2.23;1.20;;;13.60;99.90;;;;;;5030764;28;20277;-63
2022/07/11 04:09:02;;;;;;;5.30;2.00;;;13.70;99.90;;;;;;5031355;28;20190;-60
2022/07/11 04:11:27;;;;;;;2.97;1.60;;;13.60;99.90;;;;;;5031080;28;20260;-63
2022/07/11 04:13:53;;;;;;;4.20;1.43;;;13.70;99.90;;;;;;5031349;28;20551;-60
2022/07/11 04:16:19;;;;;;;7.30;1.60;;;13.70;99.90;;;;;;5030030;28;20609;-62
2022/07/11 04:18:45;;;;;;;5.57;1.93;;;13.80;99.90;;;;;;5031081;28;20195;-63
2022/07/11 04:21:11;;;;;;;8.20;2.00;;;13.90;99.90;;;;;;5042722;28;20300;-62
2022/07/11 04:23:36;;;;;;;7.23;1.87;;;13.90;99.90;;;;;;5050807;28;20286;-63
2022/07/11 04:26:02;;;;;;;3.57;1.97;;;14.00;99.90;;;;;;5049896;28;20186;-63
2022/07/11 04:28:28;;;;;;;2.77;1.60;;;14.10;99.90;;;;;;5050463;28;20171;-64
2022/07/11 04:30:54;;;;;;;4.63;1.50;;;14.10;99.90;;;;;;5050959;28;20768;-62
2022/07/11 04:33:20;;;;;;;5.33;2.00;;;14.00;99.90;;;;;;5050660;28;20269;-61
2022/07/11 04:35:45;;;;;;;4.47;1.43;;;14.10;99.90;;;;;;5050229;28;20188;-62
2022/07/11 04:38:11;;;;;;;5.40;1.77;;;14.20;99.90;;;;;;5049432;28;20178;-63
2022/07/11 04:40:37;;;;;;;2.50;1.50;;;14.20;99.90;;;;;;5053679;28;20335;-62
2022/07/11 04:43:04;;;;;;;5.07;2.07;;;14.10;99.90;;;;;;5053173;28;20192;-64
2022/07/11 04:45:30;;;;;;;4.30;1.87;;;14.20;99.90;;;;;;5054022;28;20178;-62
2022/07/11 04:47:56;;;;;;;9.03;4.07;;;14.30;99.90;;;;;;5053964;28;20174;-62
2022/07/11 04:50:22;;;;;;;7.97;3.43;;;14.40;99.90;;;;;;5053103;28;20235;-62
2022/07/11 04:52:47;;;;;;;5.23;2.87;;;14.30;99.90;;;;;;5053724;28;20623;-62
2022/07/11 04:55:13;;;;;;;4.97;2.40;;;14.40;99.90;;;;;;5054190;28;20194;-64
2022/07/11 04:57:39;;;;;;;6.33;1.40;;;14.40;99.90;;;;;;5053483;28;20208;-62
2022/07/11 05:00:05;;;;;;;5.67;2.47;;;14.50;99.90;;;;;;5053820;28;20178;-64
2022/07/11 05:02:31;;;;;;;12.77;5.37;;;14.50;99.90;;;;;;5053678;28;20530;-61
2022/07/11 05:04:57;;;;;;;10.97;3.20;;;14.50;99.90;;;;;;5054025;28;20189;-63
2022/07/11 05:07:23;;;;;;;16.60;5.17;;;14.50;99.90;;;;;;5053675;28;20891;-63
2022/07/11 05:09:48;;;;;;;8.43;2.80;;;14.60;99.90;;;;;;5053374;28;20186;-63
2022/07/11 05:12:14;;;;;;;3.90;1.93;;;14.70;99.90;;;;;;5052289;28;20642;-65
2022/07/11 05:14:40;;;;;;;4.40;1.53;;;14.80;99.90;;;;;;5053815;28;20635;-62
2022/07/11 05:17:06;;;;;;;11.00;2.83;;;15.00;99.90;;;;;;5053854;28;20196;-65
2022/07/11 05:19:32;;;;;;;7.07;3.20;;;15.00;99.90;;;;;;5053593;28;20194;-64
2022/07/11 05:21:57;;;;;;;13.43;2.80;;;15.10;99.90;;;;;;5053714;28;20213;-65
2022/07/11 05:24:23;;;;;;;7.83;4.43;;;15.10;99.90;;;;;;5053663;28;20719;-63
2022/07/11 05:26:49;;;;;;;8.80;3.97;;;15.20;99.90;;;;;;5034922;28;20210;-64
2022/07/11 05:29:15;;;;;;;9.67;2.70;;;15.30;99.90;;;;;;5052931;28;20175;-62
2022/07/11 05:31:42;;;;;;;11.23;2.80;;;15.30;99.90;;;;;;5053397;28;20274;-64
2022/07/11 05:34:08;;;;;;;9.73;4.07;;;15.30;99.90;;;;;;5053452;28;20178;-65
2022/07/11 05:36:33;;;;;;;14.70;6.03;;;15.40;99.90;;;;;;5052020;28;20240;-62
2022/07/11 05:38:59;;;;;;;11.20;3.93;;;15.40;99.90;;;;;;5051576;28;20519;-64
2022/07/11 05:41:25;;;;;;;9.20;2.73;;;15.70;99.90;;;;;;5053241;28;20305;-65
2022/07/11 05:43:51;;;;;;;6.00;1.80;;;15.60;99.90;;;;;;5051292;28;20256;-72
2022/07/11 05:46:16;;;;;;;5.77;1.97;;;15.60;99.90;;;;;;5053771;28;20220;-62
2022/07/11 05:48:42;;;;;;;7.93;1.57;;;15.60;99.90;;;;;;5052679;28;20351;-62
2022/07/11 05:51:08;;;;;;;7.97;1.47;;;15.60;99.90;;;;;;5048061;28;20223;-65
2022/07/11 05:53:34;;;;;;;6.07;1.63;;;15.80;99.90;;;;;;5058113;28;20189;-61
2022/07/11 05:55:59;;;;;;;5.60;1.40;;;16.00;99.90;;;;;;5027348;28;20190;-61
2022/07/11 05:58:25;;;;;;;8.17;2.00;;;16.00;99.90;;;;;;5061415;28;20554;-64
2022/07/11 06:00:51;;;;;;;4.80;1.90;;;15.90;99.90;;;;;;5061262;28;20222;-65
2022/07/11 06:03:17;;;;;;;6.87;1.83;;;15.70;99.90;;;;;;5060074;28;20188;-64
2022/07/11 06:05:42;;;;;;;8.13;1.80;;;15.60;99.90;;;;;;5061522;28;20194;-66
2022/07/11 06:10:52;;;;;;;6.90;2.20;;;15.60;99.90;;;;;;5062573;28;20208;-68
2022/07/11 06:13:18;;;;;;;5.97;1.97;;;15.60;99.90;;;;;;5060296;28;20193;-67
2022/07/11 06:15:44;;;;;;;10.17;2.00;;;15.70;99.90;;;;;;5060682;28;20186;-65
2022/07/11 06:18:10;;;;;;;6.70;2.40;;;15.80;99.90;;;;;;5060344;28;20182;-65
2022/07/11 06:20:36;;;;;;;4.13;2.07;;;16.00;99.90;;;;;;5054932;28;20234;-65
2022/07/11 06:23:02;;;;;;;8.27;1.77;;;16.10;99.90;;;;;;5056908;28;20201;-66
2022/07/11 06:25:27;;;;;;;7.63;2.40;;;15.90;99.90;;;;;;5059389;28;20664;-66
2022/07/11 06:27:53;;;;;;;13.70;3.00;;;15.70;99.90;;;;;;5059973;28;20296;-65
2022/07/11 06:30:19;;;;;;;7.87;2.20;;;15.60;99.90;;;;;;5060271;28;20201;-63
2022/07/11 06:32:44;;;;;;;9.77;2.83;;;15.60;99.90;;;;;;5059421;28;20528;-56
2022/07/11 06:35:10;;;;;;;11.80;3.60;;;15.60;99.90;;;;;;5058828;28;20200;-62
2022/07/11 06:37:36;;;;;;;13.10;2.90;;;15.80;99.90;;;;;;5060974;28;20975;-65
2022/07/11 06:40:02;;;;;;;6.97;2.37;;;15.90;99.90;;;;;;5060737;28;20244;-68
2022/07/11 06:42:27;;;;;;;7.17;2.57;;;16.10;99.90;;;;;;5059137;28;20201;-69
2022/07/11 06:44:54;;;;;;;8.17;2.40;;;16.40;99.90;;;;;;5061440;28;20193;-63
2022/07/11 06:47:20;;;;;;;6.17;2.47;;;16.30;99.90;;;;;;5060843;28;20190;-66
2022/07/11 06:49:46;;;;;;;6.43;1.70;;;16.70;99.90;;;;;;5059912;28;20182;-68
2022/07/11 06:52:11;;;;;;;8.40;1.93;;;17.00;99.90;;;;;;5059535;28;20210;-63
2022/07/11 06:54:37;;;;;;;5.10;2.13;;;16.70;99.90;;;;;;5060133;28;20205;-63
2022/07/11 06:57:03;;;;;;;7.27;2.37;;;16.70;99.90;;;;;;5060025;28;20201;-63
2022/07/11 06:59:28;;;;;;;7.93;2.63;;;16.90;99.90;;;;;;5060976;28;20641;-66
2022/07/11 07:01:54;;;;;;;6.17;2.63;;;17.00;99.90;;;;;;5058616;28;20217;-67
2022/07/11 07:04:20;;;;;;;6.20;2.33;;;17.10;99.90;;;;;;5058357;28;20563;-63
2022/07/11 07:06:46;;;;;;;3.87;1.90;;;17.00;99.90;;;;;;5060796;28;20284;-63
2022/07/11 07:09:13;;;;;;;5.83;2.27;;;17.10;99.90;;;;;;5060502;28;20193;-62
2022/07/11 07:11:38;;;;;;;6.53;2.63;;;17.00;99.90;;;;;;5058509;28;20202;-65
2022/07/11 07:14:04;;;;;;;5.30;2.13;;;17.10;99.90;;;;;;5060672;28;20675;-64
2022/07/11 07:16:30;;;;;;;5.13;2.20;;;17.00;99.90;;;;;;5059789;28;20729;-69
2022/07/11 07:18:56;;;;;;;9.60;2.03;;;16.90;99.90;;;;;;5057265;28;20186;-64
2022/07/11 07:21:21;;;;;;;5.60;2.23;;;16.90;99.90;;;;;;5059087;28;20666;-65
2022/07/11 07:23:47;;;;;;;4.83;2.40;;;16.70;99.90;;;;;;5059722;28;20198;-63
2022/07/11 07:26:13;;;;;;;8.37;2.40;;;16.70;99.90;;;;;;5059563;28;20670;-68
2022/07/11 07:28:39;;;;;;;6.20;2.63;;;16.70;99.90;;;;;;5060331;28;20668;-66
2022/07/11 07:31:06;;;;;;;6.10;2.70;;;16.90;99.90;;;;;;5060206;28;20236;-68
2022/07/11 07:33:31;;;;;;;4.97;2.20;;;17.10;99.90;;;;;;5059516;28;20670;-65
2022/07/11 07:35:57;;;;;;;2.93;2.00;;;17.00;99.90;;;;;;5059192;28;20201;-63
2022/07/11 07:38:23;;;;;;;4.40;2.50;;;16.70;99.90;;;;;;5058286;28;20232;-65
2022/07/11 07:40:48;;;;;;;6.97;2.20;;;16.70;99.90;;;;;;5057934;28;20245;-60
2022/07/11 07:43:14;;;;;;;8.20;2.80;;;17.00;99.90;;;;;;5059305;28;20554;-63
2022/07/11 07:45:40;;;;;;;5.37;1.97;;;17.10;99.90;;;;;;5057749;28;20243;-66
2022/07/11 07:48:06;;;;;;;7.47;2.30;;;17.20;99.90;;;;;;5057696;28;20619;-66
2022/07/11 07:50:31;;;;;;;6.67;1.93;;;17.00;99.90;;;;;;5058564;28;20220;-66
2022/07/11 07:52:57;;;;;;;7.60;2.17;;;16.80;99.90;;;;;;5059418;28;20276;-65
2022/07/11 07:55:23;;;;;;;6.90;2.17;;;16.90;99.90;;;;;;5059582;28;20190;-62
2022/07/11 07:57:48;;;;;;;3.27;1.30;;;17.10;99.90;;;;;;5058032;28;20194;-67
2022/07/11 08:03:06;;;;;;;5.73;2.37;;;17.00;99.90;;;;;;5058804;28;21120;-57
2022/07/11 08:05:32;;;;;;;7.50;2.00;;;17.30;99.90;;;;;;5056669;28;20521;-58
2022/07/11 08:07:59;;;;;;;7.30;2.23;;;17.50;99.90;;;;;;5059829;28;20247;-60
2022/07/11 08:10:24;;;;;;;4.57;1.40;;;18.10;99.90;;;;;;5058778;28;20771;-62
2022/07/11 08:12:50;;;;;;;3.13;1.47;;;18.40;99.90;;;;;;5059602;28;20221;-64
2022/07/11 08:15:16;;;;;;;2.40;1.20;;;18.60;99.90;;;;;;5064493;28;20183;-62
2022/07/11 08:17:41;;;;;;;4.60;1.10;;;18.60;99.90;;;;;;5061268;28;20189;-64
2022/07/11 08:20:08;;;;;;;3.87;1.27;;;18.40;99.90;;;;;;5063440;28;20280;-66
2022/07/11 08:22:33;;;;;;;4.83;1.83;;;18.10;99.90;;;;;;5062989;28;20190;-64
2022/07/11 08:24:59;;;;;;;4.70;1.67;;;18.00;99.90;;;;;;5063412;28;20194;-65
2022/07/11 08:27:26;;;;;;;4.33;1.50;;;18.30;99.90;;;;;;5063084;28;20197;-59
2022/07/11 08:29:52;;;;;;;2.93;1.10;;;18.60;99.80;;;;;;5063397;28;20247;-65
2022/07/11 08:32:18;;;;;;;2.20;1.13;;;18.40;99.60;;;;;;5063717;28;20665;-68
2022/07/11 08:34:45;;;;;;;3.07;1.10;;;18.20;99.80;;;;;;5060426;28;20217;-62
2022/07/11 08:37:11;;;;;;;2.57;0.77;;;18.30;99.90;;;;;;5062526;28;20197;-66
2022/07/11 08:39:37;;;;;;;2.27;0.87;;;18.30;98.20;;;;;;5062537;28;20237;-61
2022/07/11 08:42:03;;;;;;;1.67;0.70;;;18.50;97.80;;;;;;5062785;28;20546;-68
2022/07/11 08:44:29;;;;;;;2.00;0.87;;;18.50;98.00;;;;;;5062147;28;20361;-63
2022/07/11 08:46:57;;;;;;;3.70;1.13;;;18.40;97.90;;;;;;5062133;28;20228;-62
2022/07/11 08:49:23;;;;;;;2.30;1.00;;;18.20;98.30;;;;;;5060666;28;20196;-61
2022/07/11 08:51:49;;;;;;;1.08;0.90;;;18.40;98.60;;;;;;5061784;28;20274;-66
2022/07/11 08:54:14;;;;;;;4.45;1.08;;;18.70;98.30;;;;;;5062656;28;20244;-60
2022/07/11 08:56:45;;;;;;;2.90;1.03;;;18.50;97.10;;;;;;5060087;28;20197;-63
2022/07/11 08:59:17;;;;;;;2.60;0.95;;;18.40;98.00;;;;;;5061172;28;20212;-62
2022/07/11 09:01:45;;;;;;;1.50;0.80;;;18.80;97.90;;;;;;5062345;28;20222;-61
2022/07/11 09:04:13;;;;;;;2.47;0.82;;;18.70;97.70;;;;;;5061315;28;20638;-61
2022/07/11 09:06:40;;;;;;;2.72;1.10;;;18.70;97.20;;;;;;5061874;28;20266;-65
2022/07/11 09:09:05;;;;;;;3.70;1.40;;;18.70;97.90;;;;;;5060682;28;20272;-63
2022/07/11 09:11:52;;;;;;;3.58;1.10;;;19.10;97.50;;;;;;5062338;28;20621;-55
2022/07/11 09:14:29;;;;;;;2.60;0.90;;;19.00;97.40;;;;;;5059835;28;20230;-62
2022/07/11 09:17:00;;;;;;;2.85;1.35;;;18.70;98.20;;;;;;5062252;28;20185;-60
2022/07/11 09:19:29;;;;;;;6.17;1.27;;;18.70;98.60;;;;;;5061280;28;20189;-63
2022/07/11 09:25:23;;;;;;;6.55;1.50;;;18.80;98.50;;;;;;5061543;28;20230;-62
2022/07/11 09:27:52;;;;;;;5.63;1.45;;;18.90;97.70;;;;;;5059772;28;20277;-61
